Aviation Digital Data Service (ADDS)

Output produced by METARs form (2054 UTC 22 June 2018)
found at http://aviationweather.gov/adds/metars/
 
KTYR 221953Z 22007KT 10SM CLR 34/22 A2983 RMK AO2 SLP093 T03440217